Time;durP1;ratioP1;P1;durP2;ratioP2;P2;SDS_P1;SDS_P2;PMS_P1;PMS_P2;Temp;Humidity;BMP_temperature;BMP_pressure;BME280_temperature;BME280_humidity;BME280_pressure;Samples;Min_cycle;Max_cycle;Signal;HPM_P1;HPM_P2
2022/06/06 00:02:17;;;;;;;;;;;;;;;;;;5118547;28;19973;-87
2022/06/06 00:04:42;;;;;;;;;;;;;;;;;;5118605;28;20010;-86
2022/06/06 00:07:09;;;;;;;;;;;;;;;;;;5117046;28;19926;-88
2022/06/06 00:09:35;;;;;;;;;;;;;;;;;;5100466;28;19920;-87
2022/06/06 00:12:02;;;;;;;;;;;;;;;;;;5116879;28;19922;-87
2022/06/06 00:14:28;;;;;;;;;;;;;;;;;;5118313;28;20303;-87
2022/06/06 00:16:53;;;;;;;;;;;;;;;;;;5118201;28;19916;-86
2022/06/06 00:19:19;;;;;;;;;;;;;;;;;;5116913;28;20305;-88
2022/06/06 00:21:47;;;;;;;;;;;;;;;;;;5118349;28;19920;-88
2022/06/06 00:24:12;;;;;;;;;;;;;;;;;;5117095;28;19915;-88
2022/06/06 00:26:38;;;;;;;;;;;;;;;;;;5118588;28;19926;-87
2022/06/06 00:29:05;;;;;;;;;;;;;;;;;;5118423;28;20298;-87
2022/06/06 00:36:59;;;;;;;;;;;;;;;;;;5119534;28;19922;-87
2022/06/06 00:39:25;;;;;;;;;;;;;;;;;;5118870;28;19916;-88
2022/06/06 00:41:52;;;;;;;;;;;;;;;;;;5117568;28;19962;-88
2022/06/06 00:44:19;;;;;;;;;;;;;;;;;;5118099;28;20271;-88
2022/06/06 00:46:47;;;;;;;;;;;;;;;;;;5118081;28;20006;-88
2022/06/06 00:49:33;;;;;;;;;;;;;;;;;;5117793;28;20291;-87
2022/06/06 00:51:58;;;;;;;;;;;;;;;;;;5118334;28;20379;-90
2022/06/06 00:54:25;;;;;;;;;;;;;;;;;;5117128;28;19916;-87
2022/06/06 00:56:54;;;;;;;;;;;;;;;;;;5117286;28;19962;-88
2022/06/06 00:59:22;;;;;;;;;;;;;;;;;;5117222;28;19916;-88
2022/06/06 01:01:51;;;;;;;;;;;;;;;;;;5117924;28;20371;-87
2022/06/06 01:04:18;;;;;;;;;;;;;;;;;;5119108;28;19919;-88
2022/06/06 01:06:45;;;;;;;;;;;;;;;;;;5117574;28;19915;-86
2022/06/06 01:09:11;;;;;;;;;;;;;;;;;;5118060;28;19916;-88
2022/06/06 01:11:39;;;;;;;;;;;;;;;;;;5118138;28;19916;-88
2022/06/06 01:14:05;;;;;;;;;;;;;;;;;;5118369;28;19923;-89
2022/06/06 01:16:45;;;;;;;;;;;;;;;;;;5118833;28;20351;-87
2022/06/06 01:19:19;;;;;;;;;;;;;;;;;;5116712;28;20428;-87
2022/06/06 01:21:48;;;;;;;;;;;;;;;;;;5117437;28;19915;-87
2022/06/06 01:24:32;;;;;;;;;;;;;;;;;;5117954;28;19915;-86
2022/06/06 01:27:16;;;;;;;;;;;;;;;;;;5118451;28;20397;-88
2022/06/06 01:29:45;;;;;;;;;;;;;;;;;;5118747;28;20002;-87
2022/06/06 01:32:12;;;;;;;;;;;;;;;;;;5122479;28;20337;-94
2022/06/06 01:34:40;;;;;;;;;;;;;;;;;;5125945;28;19916;-87
2022/06/06 01:37:24;;;;;;;;;;;;;;;;;;5121768;28;20018;-91
2022/06/06 01:39:50;;;;;;;;;;;;;;;;;;5122701;28;19923;-92
2022/06/06 01:42:39;;;;;;;;;;;;;;;;;;5123867;28;19915;-92
2022/06/06 01:45:23;;;;;;;;;;;;;;;;;;5114857;28;19961;-90
2022/06/06 01:47:53;;;;;;;;;;;;;;;;;;5121914;28;20360;-88
2022/06/06 01:50:20;;;;;;;;;;;;;;;;;;5114473;28;20379;-86
2022/06/06 01:52:57;;;;;;;;;;;;;;;;;;5115813;28;20056;-87
2022/06/06 01:55:23;;;;;;;;;;;;;;;;;;5118243;28;20406;-87
2022/06/06 01:57:50;;;;;;;;;;;;;;;;;;5118624;28;19919;-88
2022/06/06 02:00:16;;;;;;;;;;;;;;;;;;5121501;28;19916;-93
2022/06/06 02:02:43;;;;;;;;;;;;;;;;;;5120830;28;20384;-87
2022/06/06 02:05:11;;;;;;;;;;;;;;;;;;5117875;28;19920;-88
2022/06/06 02:07:36;;;;;;;;;;;;;;;;;;5119391;28;19958;-88
2022/06/06 02:10:02;;;;;;;;;;;;;;;;;;5118035;28;19916;-88
2022/06/06 02:12:27;;;;;;;;;;;;;;;;;;5117697;28;20010;-87
2022/06/06 02:14:53;;;;;;;;;;;;;;;;;;5117208;28;19915;-88
2022/06/06 02:17:18;;;;;;;;;;;;;;;;;;5118009;28;19915;-87
2022/06/06 02:19:44;;;;;;;;;;;;;;;;;;5117403;28;19963;-87
2022/06/06 02:22:09;;;;;;;;;;;;;;;;;;5117669;28;20410;-87
2022/06/06 02:24:34;;;;;;;;;;;;;;;;;;5118733;27;19916;-90
2022/06/06 02:27:00;;;;;;;;;;;;;;;;;;5116593;28;19922;-87
2022/06/06 02:29:25;;;;;;;;;;;;;;;;;;5118998;28;20357;-88
2022/06/06 02:31:51;;;;;;;;;;;;;;;;;;5120019;28;19961;-87
2022/06/06 02:34:16;;;;;;;;;;;;;;;;;;5137710;28;19947;-88
2022/06/06 02:36:42;;;;;;;;;;;;;;;;;;5138923;28;19927;-89
2022/06/06 02:39:08;;;;;;;;;;;;;;;;;;5129702;28;19927;-89
2022/06/06 02:41:35;;;;;;;;;;;;;;;;;;5122112;28;20321;-88
2022/06/06 02:44:01;;;;;;;;;;;;;;;;;;5116442;28;19916;-87
2022/06/06 02:46:26;;;;;;;;;;;;;;;;;;5115831;28;20321;-87
2022/06/06 02:48:51;;;;;;;;;;;;;;;;;;5115906;28;19916;-87
2022/06/06 02:51:18;;;;;;;;;;;;;;;;;;5113953;28;19920;-87
2022/06/06 02:53:43;;;;;;;;;;;;;;;;;;5113743;28;19955;-88
2022/06/06 02:56:09;;;;;;;;;;;;;;;;;;5115214;28;20366;-88
2022/06/06 02:58:37;;;;;;;;;;;;;;;;;;5115209;28;19912;-87
2022/06/06 03:01:07;;;;;;;;;;;;;;;;;;5113833;28;20056;-87
2022/06/06 03:03:35;;;;;;;;;;;;;;;;;;5113375;28;19924;-86
2022/06/06 03:06:20;;;;;;;;;;;;;;;;;;5113623;28;19923;-87
2022/06/06 03:09:11;;;;;;;;;;;;;;;;;;5115046;28;19916;-86
2022/06/06 03:11:55;;;;;;;;;;;;;;;;;;5112850;28;19923;-87
2022/06/06 03:14:33;;;;;;;;;;;;;;;;;;5113724;28;19969;-87
2022/06/06 03:22:45;;;;;;;;;;;;;;;;;;5115026;28;20006;-86
2022/06/06 03:25:30;;;;;;;;;;;;;;;;;;5114494;28;19963;-86
2022/06/06 03:28:01;;;;;;;;;;;;;;;;;;5114946;28;19916;-86
2022/06/06 03:30:27;;;;;;;;;;;;;;;;;;5114291;28;19919;-89
2022/06/06 03:33:08;;;;;;;;;;;;;;;;;;5114208;28;19922;-87
2022/06/06 03:35:46;;;;;;;;;;;;;;;;;;5112920;28;20002;-88
2022/06/06 03:38:19;;;;;;;;;;;;;;;;;;5114245;28;19963;-86
2022/06/06 03:41:17;;;;;;;;;;;;;;;;;;5114908;28;20347;-85
2022/06/06 03:43:42;;;;;;;;;;;;;;;;;;5090847;28;19922;-86
2022/06/06 03:46:12;;;;;;;;;;;;;;;;;;5114489;28;19920;-86
2022/06/06 03:48:56;;;;;;;;;;;;;;;;;;5114525;28;19970;-85
2022/06/06 03:51:34;;;;;;;;;;;;;;;;;;5114300;28;19915;-86
2022/06/06 03:54:02;;;;;;;;;;;;;;;;;;5114266;28;19969;-87
2022/06/06 03:56:40;;;;;;;;;;;;;;;;;;5114254;28;19920;-92
2022/06/06 03:59:07;;;;;;;;;;;;;;;;;;5114256;28;20359;-87
2022/06/06 04:01:34;;;;;;;;;;;;;;;;;;5116367;28;19923;-86
2022/06/06 04:04:01;;;;;;;;;;;;;;;;;;5116360;28;19947;-87
2022/06/06 04:06:32;;;;;;;;;;;;;;;;;;5115483;28;19928;-93
2022/06/06 04:08:57;;;;;;;;;;;;;;;;;;5099723;28;20279;-89
2022/06/06 04:11:29;;;;;;;;;;;;;;;;;;5098369;28;19923;-86
2022/06/06 04:13:57;;;;;;;;;;;;;;;;;;5097237;28;19916;-86
2022/06/06 04:16:27;;;;;;;;;;;;;;;;;;5099397;28;19916;-92
2022/06/06 04:19:09;;;;;;;;;;;;;;;;;;5108820;28;19924;-87
2022/06/06 04:21:53;;;;;;;;;;;;;;;;;;5101959;28;19916;-90
2022/06/06 04:24:19;;;;;;;;;;;;;;;;;;5108703;28;19920;-88
2022/06/06 04:26:50;;;;;;;;;;;;;;;;;;5116568;28;19961;-88
2022/06/06 04:29:37;;;;;;;;;;;;;;;;;;5117697;28;19916;-87
2022/06/06 04:32:05;;;;;;;;;;;;;;;;;;5116996;28;20400;-87
2022/06/06 04:34:40;;;;;;;;;;;;;;;;;;5117230;28;19977;-86
2022/06/06 04:37:18;;;;;;;;;;;;;;;;;;5115953;28;20302;-88
2022/06/06 04:39:55;;;;;;;;;;;;;;;;;;5118467;28;20349;-87
2022/06/06 04:42:27;;;;;;;;;;;;;;;;;;5118408;28;20444;-86
2022/06/06 04:44:52;;;;;;;;;;;;;;;;;;5117143;28;19941;-86
2022/06/06 04:47:23;;;;;;;;;;;;;;;;;;5115836;28;20015;-86
2022/06/06 04:49:48;;;;;;;;;;;;;;;;;;5117111;28;19926;-88
2022/06/06 04:52:15;;;;;;;;;;;;;;;;;;5116877;28;19916;-88
2022/06/06 04:54:41;;;;;;;;;;;;;;;;;;5115769;28;20282;-86
2022/06/06 04:57:08;;;;;;;;;;;;;;;;;;5116895;28;19922;-86
2022/06/06 04:59:35;;;;;;;;;;;;;;;;;;5116731;28;20010;-87
2022/06/06 05:02:02;;;;;;;;;;;;;;;;;;5115268;28;19916;-86
2022/06/06 05:04:28;;;;;;;;;;;;;;;;;;5116548;28;19920;-86
2022/06/06 05:07:13;;;;;;;;;;;;;;;;;;5115444;28;19941;-86
2022/06/06 05:09:46;;;;;;;;;;;;;;;;;;5105066;28;19927;-87
2022/06/06 05:12:22;;;;;;;;;;;;;;;;;;5116710;28;19954;-86
2022/06/06 05:15:02;;;;;;;;;;;;;;;;;;5115059;28;19916;-87
2022/06/06 05:17:28;;;;;;;;;;;;;;;;;;5115357;28;20282;-85
2022/06/06 05:20:12;;;;;;;;;;;;;;;;;;5116170;28;19961;-86
2022/06/06 05:22:52;;;;;;;;;;;;;;;;;;5115221;28;19916;-88
2022/06/06 05:25:27;;;;;;;;;;;;;;;;;;5116236;28;19961;-89
2022/06/06 05:28:10;;;;;;;;;;;;;;;;;;5115207;28;20283;-87
2022/06/06 05:30:54;;;;;;;;;;;;;;;;;;5116187;28;19915;-86
2022/06/06 05:33:21;;;;;;;;;;;;;;;;;;5118179;28;19938;-86
2022/06/06 05:35:49;;;;;;;;;;;;;;;;;;5118937;28;20010;-86
2022/06/06 05:38:23;;;;;;;;;;;;;;;;;;5119264;28;19911;-86
2022/06/06 05:41:01;;;;;;;;;;;;;;;;;;5121990;28;19958;-83
2022/06/06 05:43:37;;;;;;;;;;;;;;;;;;5119906;28;19911;-83
2022/06/06 05:46:16;;;;;;;;;;;;;;;;;;5119251;28;19923;-84
2022/06/06 05:48:53;;;;;;;;;;;;;;;;;;5120989;28;19939;-84
2022/06/06 05:51:29;;;;;;;;;;;;;;;;;;5120379;28;19980;-83
2022/06/06 05:54:01;;;;;;;;;;;;;;;;;;5118924;28;19915;-84
2022/06/06 05:56:26;;;;;;;;;;;;;;;;;;5119969;28;19916;-85
2022/06/06 05:59:10;;;;;;;;;;;;;;;;;;5119711;28;20283;-83
2022/06/06 06:01:44;;;;;;;;;;;;;;;;;;5119906;28;19916;-84
2022/06/06 06:04:26;;;;;;;;;;;;;;;;;;5120538;28;19920;-84
2022/06/06 06:06:51;;;;;;;;;;;;;;;;;;5120187;28;19916;-85
2022/06/06 06:09:17;;;;;;;;;;;;;;;;;;5120161;28;19916;-85
2022/06/06 06:11:42;;;;;;;;;;;;;;;;;;5121128;28;19916;-85
2022/06/06 06:14:26;;;;;;;;;;;;;;;;;;5119422;28;19919;-84
2022/06/06 06:16:55;;;;;;;;;;;;;;;;;;5120139;28;20279;-84
2022/06/06 06:19:24;;;;;;;;;;;;;;;;;;5119937;28;19912;-85
2022/06/06 06:21:56;;;;;;;;;;;;;;;;;;5119516;28;19968;-85
2022/06/06 06:24:30;;;;;;;;;;;;;;;;;;5118422;28;19912;-84
2022/06/06 06:26:56;;;;;;;;;;;;;;;;;;5120341;28;19915;-85
2022/06/06 06:29:22;;;;;;;;;;;;;;;;;;5118235;28;19934;-85
2022/06/06 06:32:08;;;;;;;;;;;;;;;;;;5119383;28;20359;-85
2022/06/06 06:34:34;;;;;;;;;;;;;;;;;;5116445;28;19976;-85
2022/06/06 06:37:08;;;;;;;;;;;;;;;;;;5120885;28;19916;-84
2022/06/06 06:39:40;;;;;;;;;;;;;;;;;;5119547;28;20360;-85
2022/06/06 06:42:14;;;;;;;;;;;;;;;;;;5117699;27;20260;-84
2022/06/06 06:44:53;;;;;;;;;;;;;;;;;;5119306;28;19958;-84
2022/06/06 06:47:26;;;;;;;;;;;;;;;;;;5124635;28;19920;-85
2022/06/06 06:49:55;;;;;;;;;;;;;;;;;;5136152;28;19920;-84
2022/06/06 06:52:39;;;;;;;;;;;;;;;;;;5132469;28;19928;-85
2022/06/06 06:55:24;;;;;;;;;;;;;;;;;;5096267;28;19916;-85
2022/06/06 06:57:56;;;;;;;;;;;;;;;;;;5095907;28;19917;-85
2022/06/06 07:00:23;;;;;;;;;;;;;;;;;;5093446;28;19916;-85
2022/06/06 07:08:58;;;;;;;;;;;;;;;;;;5095236;28;19927;-84
2022/06/06 07:11:23;;;;;;;;;;;;;;;;;;5094786;28;19994;-85
2022/06/06 07:13:50;;;;;;;;;;;;;;;;;;5094815;28;19916;-86
2022/06/06 07:16:21;;;;;;;;;;;;;;;;;;5094746;28;20276;-84
2022/06/06 07:18:49;;;;;;;;;;;;;;;;;;5093234;28;20291;-86
2022/06/06 07:21:15;;;;;;;;;;;;;;;;;;5093112;28;19922;-85
2022/06/06 07:23:42;;;;;;;;;;;;;;;;;;5093573;28;20010;-85
2022/06/06 07:26:10;;;;;;;;;;;;;;;;;;5094503;28;19916;-85
2022/06/06 07:28:36;;;;;;;;;;;;;;;;;;5094588;28;19916;-84
2022/06/06 07:31:04;;;;;;;;;;;;;;;;;;5094721;28;19922;-85
2022/06/06 07:33:50;;;;;;;;;;;;;;;;;;5094622;28;19924;-84
2022/06/06 07:36:20;;;;;;;;;;;;;;;;;;5097431;28;20351;-85
2022/06/06 07:38:58;;;;;;;;;;;;;;;;;;5098586;28;20314;-85
2022/06/06 07:41:24;;;;;;;;;;;;;;;;;;5098942;28;19916;-85
2022/06/06 07:44:06;;;;;;;;;;;;;;;;;;5097439;28;19912;-84
2022/06/06 07:46:52;;;;;;;;;;;;;;;;;;5098558;28;19916;-85
2022/06/06 07:49:22;;;;;;;;;;;;;;;;;;5098456;28;19912;-84
2022/06/06 07:52:02;;;;;;;;;;;;;;;;;;5097275;28;19916;-85
2022/06/06 07:54:34;;;;;;;;;;;;;;;;;;5098591;28;19971;-85
2022/06/06 07:57:02;;;;;;;;;;;;;;;;;;5098952;28;20015;-84
2022/06/06 07:59:28;;;;;;;;;;;;;;;;;;5097353;28;19923;-84
2022/06/06 08:02:16;;;;;;;;;;;;;;;;;;5098880;28;19916;-85
2022/06/06 08:04:45;;;;;;;;;;;;;;;;;;5097786;28;19920;-84
2022/06/06 08:07:16;;;;;;;;;;;;;;;;;;5098158;28;19916;-85
2022/06/06 08:09:54;;;;;;;;;;;;;;;;;;5099325;28;20314;-86
2022/06/06 08:12:29;;;;;;;;;;;;;;;;;;5097046;28;19942;-84
2022/06/06 08:14:57;;;;;;;;;;;;;;;;;;5098655;28;20064;-85
2022/06/06 08:17:41;;;;;;;;;;;;;;;;;;5098710;28;19916;-84
2022/06/06 08:20:28;;;;;;;;;;;;;;;;;;5098284;28;19920;-85
2022/06/06 08:22:56;;;;;;;;;;;;;;;;;;5099169;28;20399;-85
2022/06/06 08:25:23;;;;;;;;;;;;;;;;;;5098575;28;19916;-85
2022/06/06 08:27:50;;;;;;;;;;;;;;;;;;5098376;28;19958;-85
2022/06/06 08:30:16;;;;;;;;;;;;;;;;;;5097114;28;20375;-86
2022/06/06 08:32:42;;;;;;;;;;;;;;;;;;5098261;28;20037;-85
2022/06/06 08:35:08;;;;;;;;;;;;;;;;;;5099316;28;19955;-86
2022/06/06 08:37:40;;;;;;;;;;;;;;;;;;5099214;28;19912;-85
2022/06/06 08:40:08;;;;;;;;;;;;;;;;;;5099511;28;19923;-85
2022/06/06 08:42:40;;;;;;;;;;;;;;;;;;5097803;28;19971;-85
2022/06/06 08:45:08;;;;;;;;;;;;;;;;;;5099787;28;19916;-85
2022/06/06 08:47:34;;;;;;;;;;;;;;;;;;5099071;28;19912;-85
2022/06/06 08:53:19;;;;;;;;;;;;;;;;;;5099934;28;19996;-84
2022/06/06 08:55:56;;;;;;;;;;;;;;;;;;5100438;28;19942;-86
2022/06/06 08:58:41;;;;;;;;;;;;;;;;;;5099182;28;19919;-85
2022/06/06 09:01:06;;;;;;;;;;;;;;;;;;5100677;28;20429;-85
2022/06/06 09:03:38;;;;;;;;;;;;;;;;;;5099978;28;19920;-85
2022/06/06 09:06:22;;;;;;;;;;;;;;;;;;5099994;28;19987;-86
2022/06/06 09:08:47;;;;;;;;;;;;;;;;;;5100862;28;19999;-85
2022/06/06 09:11:29;;;;;;;;;;;;;;;;;;5099762;28;19962;-85
2022/06/06 09:14:21;;;;;;;;;;;;;;;;;;5098896;28;19920;-85
2022/06/06 09:17:05;;;;;;;;;;;;;;;;;;5099424;28;19916;-85
2022/06/06 09:19:49;;;;;;;;;;;;;;;;;;5097804;28;19916;-85
2022/06/06 09:22:25;;;;;;;;;;;;;;;;;;5098238;28;20376;-85
2022/06/06 09:24:56;;;;;;;;;;;;;;;;;;5099399;28;20435;-85
2022/06/06 09:27:21;;;;;;;;;;;;;;;;;;5098284;28;20387;-85
2022/06/06 09:30:06;;;;;;;;;;;;;;;;;;5096256;28;19916;-85
2022/06/06 09:32:38;;;;;;;;;;;;;;;;;;5096311;28;19945;-85
2022/06/06 09:35:19;;;;;;;;;;;;;;;;;;5097810;28;19917;-85
2022/06/06 09:37:59;;;;;;;;;;;;;;;;;;5097583;28;20379;-85
2022/06/06 09:40:45;;;;;;;;;;;;;;;;;;5097402;28;20372;-86
2022/06/06 09:43:25;;;;;;;;;;;;;;;;;;5076224;28;20421;-85
2022/06/06 09:46:01;;;;;;;;;;;;;;;;;;5097481;28;19922;-85
2022/06/06 09:48:53;;;;;;;;;;;;;;;;;;5096220;28;19923;-85
2022/06/06 09:51:21;;;;;;;;;;;;;;;;;;5095197;28;20011;-85
2022/06/06 09:59:01;;;;;;;;;;;;;;;;;;5096889;28;19916;-85
2022/06/06 09:59:54;;;;;;;;;;;;;;;;;;5096574;28;19966;-85
2022/06/06 10:02:51;;;;;;;;;;;;;;;;;;5097361;28;20007;-85
2022/06/06 10:05:28;;;;;;;;;;;;;;;;;;5097507;28;19982;-86
2022/06/06 10:07:56;;;;;;;;;;;;;;;;;;5097516;28;20358;-85
2022/06/06 10:10:40;;;;;;;;;;;;;;;;;;5095712;28;20398;-84
2022/06/06 10:13:17;;;;;;;;;;;;;;;;;;5097323;28;20382;-85
2022/06/06 10:15:49;;;;;;;;;;;;;;;;;;5096701;28;19916;-85
2022/06/06 10:18:17;;;;;;;;;;;;;;;;;;5100039;28;20014;-86
2022/06/06 10:20:59;;;;;;;;;;;;;;;;;;5110151;28;19936;-86
2022/06/06 10:23:50;;;;;;;;;;;;;;;;;;5100788;28;19916;-86
2022/06/06 10:26:18;;;;;;;;;;;;;;;;;;5098123;28;19978;-85
2022/06/06 10:29:04;;;;;;;;;;;;;;;;;;5097586;28;20359;-86
2022/06/06 10:31:32;;;;;;;;;;;;;;;;;;5098127;28;19945;-85
2022/06/06 10:34:10;;;;;;;;;;;;;;;;;;5097301;28;20018;-85
2022/06/06 10:36:40;;;;;;;;;;;;;;;;;;5095913;28;19962;-84
2022/06/06 10:39:05;;;;;;;;;;;;;;;;;;5097129;28;20257;-85
2022/06/06 10:41:40;;;;;;;;;;;;;;;;;;5097341;28;19923;-84
2022/06/06 10:44:24;;;;;;;;;;;;;;;;;;5097760;28;19995;-85
2022/06/06 10:46:49;;;;;;;;;;;;;;;;;;5097874;28;19924;-86
2022/06/06 10:49:21;;;;;;;;;;;;;;;;;;5106512;28;19991;-86
2022/06/06 10:52:06;;;;;;;;;;;;;;;;;;5130275;28;19939;-86
2022/06/06 10:54:50;;;;;;;;;;;;;;;;;;5126152;28;20394;-86
2022/06/06 10:57:34;;;;;;;;;;;;;;;;;;5119825;28;19920;-85
2022/06/06 11:00:05;;;;;;;;;;;;;;;;;;5115863;28;19927;-86
2022/06/06 11:02:40;;;;;;;;;;;;;;;;;;5117302;28;19916;-86
2022/06/06 11:05:24;;;;;;;;;;;;;;;;;;5117211;28;19916;-85
2022/06/06 11:08:10;;;;;;;;;;;;;;;;;;5117531;28;19977;-87
2022/06/06 11:10:44;;;;;;;;;;;;;;;;;;5119917;28;20443;-85
2022/06/06 11:13:12;;;;;;;;;;;;;;;;;;5121754;28;19978;-85
2022/06/06 11:15:54;;;;;;;;;;;;;;;;;;5120393;28;20431;-86
2022/06/06 11:18:45;;;;;;;;;;;;;;;;;;5122434;28;19962;-87
2022/06/06 11:21:14;;;;;;;;;;;;;;;;;;5116794;27;19920;-86
2022/06/06 11:23:47;;;;;;;;;;;;;;;;;;5122547;28;19919;-87
2022/06/06 11:26:25;;;;;;;;;;;;;;;;;;5120955;28;19923;-86
2022/06/06 11:28:56;;;;;;;;;;;;;;;;;;5121969;28;19916;-86
2022/06/06 11:31:27;;;;;;;;;;;;;;;;;;5122571;28;19915;-86
2022/06/06 11:33:56;;;;;;;;;;;;;;;;;;5122395;27;19916;-86
2022/06/06 11:36:24;;;;;;;;;;;;;;;;;;5120728;28;20332;-86
2022/06/06 11:38:50;;;;;;;;;;;;;;;;;;5120678;28;20026;-86
2022/06/06 11:41:34;;;;;;;;;;;;;;;;;;5120193;28;20419;-86
2022/06/06 11:44:08;;;;;;;;;;;;;;;;;;5121316;28;19922;-84
2022/06/06 11:46:34;;;;;;;;;;;;;;;;;;5121678;28;19912;-84
2022/06/06 11:49:18;;;;;;;;;;;;;;;;;;5120621;28;20375;-85
2022/06/06 11:52:02;;;;;;;;;;;;;;;;;;5118941;28;20369;-85
2022/06/06 12:07:26;;;;;;;;;;;;;;;;;;6150981;22;2316629;-86
2022/06/06 12:10:08;;;;;;;;;;;;;;;;;;6202227;23;19920;-84
2022/06/06 12:12:46;;;;;;;;;;;;;;;;;;6200328;23;19916;-84
2022/06/06 12:15:15;;;;;;;;;;;;;;;;;;6200962;23;19912;-84
2022/06/06 12:17:59;;;;;;;;;;;;;;;;;;6199911;23;19991;-86
2022/06/06 12:20:42;;;;;;;;;;;;;;;;;;6207005;23;19940;-87
2022/06/06 12:23:08;;;;;;;;;;;;;;;;;;6208826;23;19912;-85
2022/06/06 12:25:52;;;;;;;;;;;;;;;;;;6209769;23;19912;-85
2022/06/06 12:28:18;;;;;;;;;;;;;;;;;;6204498;23;19960;-86
2022/06/06 12:30:57;;;;;;;;;;;;;;;;;;6206360;23;19920;-85
2022/06/06 12:33:38;;;;;;;;;;;;;;;;;;6207239;23;19936;-86
2022/06/06 12:36:30;;;;;;;;;;;;;;;;;;6207878;23;19912;-84
2022/06/06 12:38:55;;;;;;;;;;;;;;;;;;6197785;23;19916;-85
2022/06/06 12:41:21;;;;;;;;;;;;;;;;;;6206817;23;20221;-85
2022/06/06 12:44:05;;;;;;;;;;;;;;;;;;6205418;23;19912;-84
2022/06/06 12:46:49;;;;;;;;;;;;;;;;;;6205524;23;19913;-85
2022/06/06 12:49:20;;;;;;;;;;;;;;;;;;6206116;23;19955;-85
2022/06/06 12:52:06;;;;;;;;;;;;;;;;;;6202952;23;19912;-85
2022/06/06 12:57:49;;;;;;;;;;;;;;;;;;6206812;23;19912;-84
2022/06/06 13:00:20;;;;;;;;;;;;;;;;;;6203394;23;19908;-86
2022/06/06 13:02:49;;;;;;;;;;;;;;;;;;6207979;23;19917;-85
2022/06/06 13:05:34;;;;;;;;;;;;;;;;;;6204572;23;19912;-85
2022/06/06 13:07:59;;;;;;;;;;;;;;;;;;6222791;23;19923;-84
2022/06/06 13:10:43;;;;;;;;;;;;;;;;;;6228703;23;19912;-85
2022/06/06 13:13:27;;;;;;;;;;;;;;;;;;6202414;23;19964;-83
2022/06/06 13:15:53;;;;;;;;;;;;;;;;;;6202982;23;20221;-85
2022/06/06 13:18:46;;;;;;;;;;;;;;;;;;6230250;23;19919;-85
2022/06/06 13:21:18;;;;;;;;;;;;;;;;;;6199695;23;19912;-85
2022/06/06 13:23:57;;;;;;;;;;;;;;;;;;6199957;23;19911;-84
2022/06/06 13:26:41;;;;;;;;;;;;;;;;;;6226538;23;19970;-84
2022/06/06 13:29:06;;;;;;;;;;;;;;;;;;6201935;23;19912;-84
2022/06/06 13:31:51;;;;;;;;;;;;;;;;;;6202226;23;19919;-85
2022/06/06 13:34:31;;;;;;;;;;;;;;;;;;6200970;23;19962;-83
2022/06/06 13:37:05;;;;;;;;;;;;;;;;;;6230056;23;19951;-84
2022/06/06 13:39:49;;;;;;;;;;;;;;;;;;6226048;23;19912;-85
2022/06/06 13:42:29;;;;;;;;;;;;;;;;;;6224943;23;19912;-84
2022/06/06 13:45:10;;;;;;;;;;;;;;;;;;6227891;23;20332;-83
2022/06/06 13:47:38;;;;;;;;;;;;;;;;;;6235733;23;20315;-84
2022/06/06 13:50:08;;;;;;;;;;;;;;;;;;6211388;23;20347;-85
2022/06/06 13:52:39;;;;;;;;;;;;;;;;;;6205840;23;20301;-85
2022/06/06 13:55:24;;;;;;;;;;;;;;;;;;6228733;23;19916;-84
2022/06/06 13:58:15;;;;;;;;;;;;;;;;;;6228531;23;19964;-84
2022/06/06 14:00:48;;;;;;;;;;;;;;;;;;6218820;23;20350;-84
2022/06/06 14:03:31;;;;;;;;;;;;;;;;;;6227344;23;19959;-85
2022/06/06 14:06:35;;;;;;;;;;;;;;;;;;6203604;23;19912;-84
2022/06/06 14:09:01;;;;;;;;;;;;;;;;;;6075675;23;19948;-84
2022/06/06 14:11:49;;;;;;;;;;;;;;;;;;6073666;23;19913;-83
2022/06/06 14:14:22;;;;;;;;;;;;;;;;;;6066682;23;19945;-84
2022/06/06 14:16:53;;;;;;;;;;;;;;;;;;6079288;23;20038;-83
2022/06/06 14:19:24;;;;;;;;;;;;;;;;;;6078611;23;19917;-85
2022/06/06 14:21:54;;;;;;;;;;;;;;;;;;6077444;23;20385;-84
2022/06/06 14:24:21;;;;;;;;;;;;;;;;;;6076625;23;19913;-84
2022/06/06 14:27:04;;;;;;;;;;;;;;;;;;6075990;23;19920;-84
2022/06/06 14:29:37;;;;;;;;;;;;;;;;;;6075950;23;19992;-85
2022/06/06 14:32:23;;;;;;;;;;;;;;;;;;6077733;23;19922;-84
2022/06/06 14:35:22;;;;;;;;;;;;;;;;;;6078665;23;19941;-84
2022/06/06 14:37:49;;;;;;;;;;;;;;;;;;6073605;23;19924;-84
2022/06/06 14:40:35;;;;;;;;;;;;;;;;;;6181302;23;19908;-84
2022/06/06 14:43:00;;;;;;;;;;;;;;;;;;6193846;23;19912;-86
2022/06/06 14:57:07;;;;;;;;;;;;;;;;;;5175804;27;20274;-89
2022/06/06 14:59:43;;;;;;;;;;;;;;;;;;5156399;27;20007;-87
2022/06/06 15:02:18;;;;;;;;;;;;;;;;;;5166058;27;19916;-88
2022/06/06 15:04:44;;;;;;;;;;;;;;;;;;5162264;27;20453;-88
2022/06/06 15:07:10;;;;;;;;;;;;;;;;;;5163167;27;19926;-89
2022/06/06 15:09:43;;;;;;;;;;;;;;;;;;5161132;27;19922;-88
2022/06/06 15:12:35;;;;;;;;;;;;;;;;;;5166021;27;19926;-91
2022/06/06 15:15:06;;;;;;;;;;;;;;;;;;5162526;27;19924;-88
2022/06/06 15:17:35;;;;;;;;;;;;;;;;;;5165495;27;19923;-87
2022/06/06 15:20:06;;;;;;;;;;;;;;;;;;5169257;27;19915;-89
2022/06/06 15:22:36;;;;;;;;;;;;;;;;;;5155885;27;19920;-92
2022/06/06 15:25:01;;;;;;;;;;;;;;;;;;5157439;27;19919;-88
2022/06/06 15:27:40;;;;;;;;;;;;;;;;;;5157960;27;19927;-90
2022/06/06 15:30:15;;;;;;;;;;;;;;;;;;5159176;27;19927;-87
2022/06/06 15:32:45;;;;;;;;;;;;;;;;;;5165210;27;19927;-87
2022/06/06 15:35:37;;;;;;;;;;;;;;;;;;5159720;27;19952;-87
2022/06/06 15:38:13;;;;;;;;;;;;;;;;;;5155419;27;19940;-89
2022/06/06 15:40:57;;;;;;;;;;;;;;;;;;5160259;27;21415;-88
2022/06/06 15:43:24;;;;;;;;;;;;;;;;;;5163372;27;20366;-89
2022/06/06 15:46:17;;;;;;;;;;;;;;;;;;5167165;27;19923;-89
2022/06/06 15:48:44;;;;;;;;;;;;;;;;;;5160943;27;19920;-87
2022/06/06 15:51:30;;;;;;;;;;;;;;;;;;5163272;27;19919;-90
2022/06/06 15:54:08;;;;;;;;;;;;;;;;;;5155270;27;19919;-87
2022/06/06 15:56:42;;;;;;;;;;;;;;;;;;5151596;27;19927;-89
2022/06/06 15:59:30;;;;;;;;;;;;;;;;;;5143631;27;19934;-89
2022/06/06 16:02:02;;;;;;;;;;;;;;;;;;5142882;27;19919;-89
2022/06/06 16:04:36;;;;;;;;;;;;;;;;;;5144138;27;19920;-90
2022/06/06 16:07:20;;;;;;;;;;;;;;;;;;5132452;27;19951;-88
2022/06/06 16:10:02;;;;;;;;;;;;;;;;;;5146625;27;20397;-90
2022/06/06 16:12:37;;;;;;;;;;;;;;;;;;5144266;27;19945;-89
2022/06/06 16:15:27;;;;;;;;;;;;;;;;;;5146619;27;20427;-89
2022/06/06 16:18:04;;;;;;;;;;;;;;;;;;5138403;27;20294;-87
2022/06/06 16:20:51;;;;;;;;;;;;;;;;;;5147946;27;20294;-87
2022/06/06 16:23:24;;;;;;;;;;;;;;;;;;5145152;27;19930;-88
2022/06/06 16:25:52;;;;;;;;;;;;;;;;;;5145696;27;19923;-87
2022/06/06 16:28:32;;;;;;;;;;;;;;;;;;5146349;27;19920;-88
2022/06/06 16:48:04;;;;;;;;;;;;;;;;;;6177037;23;19924;-90
2022/06/06 16:50:43;;;;;;;;;;;;;;;;;;6176767;23;19923;-92
2022/06/06 16:53:16;;;;;;;;;;;;;;;;;;6178004;23;19919;-91
2022/06/06 16:55:46;;;;;;;;;;;;;;;;;;6153404;23;20395;-90
2022/06/06 16:58:23;;;;;;;;;;;;;;;;;;6180029;23;19913;-90
2022/06/06 17:00:59;;;;;;;;;;;;;;;;;;6175010;23;19964;-93
2022/06/06 17:03:43;;;;;;;;;;;;;;;;;;6154072;23;19933;-92
2022/06/06 17:09:06;;;;;;;;;;;;;;;;;;6176180;23;19923;-92
2022/06/06 17:12:08;;;;;;;;;;;;;;;;;;6149527;23;19917;-91
2022/06/06 17:14:36;;;;;;;;;;;;;;;;;;6006008;23;19918;-91
2022/06/06 17:17:14;;;;;;;;;;;;;;;;;;6124178;23;19915;-93
2022/06/06 17:19:44;;;;;;;;;;;;;;;;;;6151816;23;20240;-90
2022/06/06 17:22:30;;;;;;;;;;;;;;;;;;6180349;23;19913;-93
2022/06/06 17:24:57;;;;;;;;;;;;;;;;;;6148314;23;20281;-91
2022/06/06 17:27:36;;;;;;;;;;;;;;;;;;6152473;23;19912;-91
2022/06/06 17:30:02;;;;;;;;;;;;;;;;;;6172227;23;19936;-91
2022/06/06 17:32:46;;;;;;;;;;;;;;;;;;6179640;23;19897;-91
2022/06/06 17:35:20;;;;;;;;;;;;;;;;;;6185835;23;19909;-90
2022/06/06 17:38:07;;;;;;;;;;;;;;;;;;6173813;23;19912;-92
2022/06/06 17:40:46;;;;;;;;;;;;;;;;;;6172030;23;20249;-92
2022/06/06 17:43:30;;;;;;;;;;;;;;;;;;6138466;23;20732;-90
2022/06/06 17:45:58;;;;;;;;;;;;;;;;;;6134074;23;19912;-91
2022/06/06 17:48:26;;;;;;;;;;;;;;;;;;6160374;23;19913;-92
2022/06/06 17:51:03;;;;;;;;;;;;;;;;;;6134366;23;19917;-91
2022/06/06 17:53:32;;;;;;;;;;;;;;;;;;6133263;23;19912;-91
2022/06/06 17:56:19;;;;;;;;;;;;;;;;;;6160184;23;19936;-93
2022/06/06 17:59:02;;;;;;;;;;;;;;;;;;6132511;23;20337;-92
2022/06/06 18:01:27;;;;;;;;;;;;;;;;;;6134714;23;19913;-91
2022/06/06 18:04:20;;;;;;;;;;;;;;;;;;6134841;23;19912;-91
2022/06/06 18:07:05;;;;;;;;;;;;;;;;;;5996044;23;19910;-93
2022/06/06 18:09:49;;;;;;;;;;;;;;;;;;6015034;23;19922;-91
2022/06/06 18:12:39;;;;;;;;;;;;;;;;;;6019717;23;19985;-91
2022/06/06 18:15:08;;;;;;;;;;;;;;;;;;6017810;23;20311;-93
2022/06/06 18:17:46;;;;;;;;;;;;;;;;;;6012212;23;19914;-92
2022/06/06 18:20:28;;;;;;;;;;;;;;;;;;6009801;23;19983;-92
2022/06/06 18:22:54;;;;;;;;;;;;;;;;;;5987086;23;19962;-92
2022/06/06 18:25:23;;;;;;;;;;;;;;;;;;5987249;23;19970;-91
2022/06/06 18:27:49;;;;;;;;;;;;;;;;;;5987204;23;19970;-92
2022/06/06 18:30:20;;;;;;;;;;;;;;;;;;5988506;23;19942;-91
2022/06/06 18:32:47;;;;;;;;;;;;;;;;;;5987877;23;20335;-93
2022/06/06 18:35:31;;;;;;;;;;;;;;;;;;6013119;23;20006;-91
2022/06/06 18:38:03;;;;;;;;;;;;;;;;;;6013233;23;19956;-91
2022/06/06 18:40:41;;;;;;;;;;;;;;;;;;6009435;23;19926;-90
2022/06/06 18:43:27;;;;;;;;;;;;;;;;;;6043716;23;19917;-91
2022/06/06 18:46:04;;;;;;;;;;;;;;;;;;6102899;23;19917;-92